sensor_id;sensor_type;location;lat;lon;timestamp;P1;durP1;ratioP1;P2;durP2;ratioP2
27566;SDS011;15006;48.584;9.186;2022-11-03T00:01:48;9.80;;;6.35;;
27566;SDS011;15006;48.584;9.186;2022-11-03T00:04:19;7.63;;;6.50;;
27566;SDS011;15006;48.584;9.186;2022-11-03T00:06:50;12.45;;;7.97;;
27566;SDS011;15006;48.584;9.186;2022-11-03T00:09:19;11.45;;;7.93;;
27566;SDS011;15006;48.584;9.186;2022-11-03T00:11:49;10.93;;;8.10;;
27566;SDS011;15006;48.584;9.186;2022-11-03T00:14:17;11.88;;;6.75;;
27566;SDS011;15006;48.584;9.186;2022-11-03T00:16:45;9.88;;;6.53;;
27566;SDS011;15006;48.584;9.186;2022-11-03T00:19:14;9.15;;;6.85;;
27566;SDS011;15006;48.584;9.186;2022-11-03T00:21:42;8.18;;;6.00;;
27566;SDS011;15006;48.584;9.186;2022-11-03T00:24:11;6.50;;;5.90;;
27566;SDS011;15006;48.584;9.186;2022-11-03T00:26:40;9.50;;;5.00;;
27566;SDS011;15006;48.584;9.186;2022-11-03T00:29:08;8.57;;;6.47;;
27566;SDS011;15006;48.584;9.186;2022-11-03T00:31:39;7.35;;;5.63;;
27566;SDS011;15006;48.584;9.186;2022-11-03T00:34:09;7.55;;;5.10;;
27566;SDS011;15006;48.584;9.186;2022-11-03T00:36:41;10.85;;;5.75;;
27566;SDS011;15006;48.584;9.186;2022-11-03T00:39:09;12.02;;;5.70;;
27566;SDS011;15006;48.584;9.186;2022-11-03T00:41:38;7.30;;;5.57;;
27566;SDS011;15006;48.584;9.186;2022-11-03T00:44:07;5.18;;;4.65;;
27566;SDS011;15006;48.584;9.186;2022-11-03T00:46:37;10.02;;;5.05;;
27566;SDS011;15006;48.584;9.186;2022-11-03T00:49:05;6.05;;;5.47;;
27566;SDS011;15006;48.584;9.186;2022-11-03T00:51:31;6.88;;;5.47;;
27566;SDS011;15006;48.584;9.186;2022-11-03T00:54:02;6.18;;;4.28;;
27566;SDS011;15006;48.584;9.186;2022-11-03T00:56:34;7.57;;;5.35;;
27566;SDS011;15006;48.584;9.186;2022-11-03T00:59:03;10.35;;;5.40;;
27566;SDS011;15006;48.584;9.186;2022-11-03T01:01:31;4.95;;;4.45;;
27566;SDS011;15006;48.584;9.186;2022-11-03T01:04:07;6.53;;;4.68;;
27566;SDS011;15006;48.584;9.186;2022-11-03T01:06:53;5.63;;;4.22;;
27566;SDS011;15006;48.584;9.186;2022-11-03T01:12:08;3.72;;;3.53;;
27566;SDS011;15006;48.584;9.186;2022-11-03T01:14:36;6.25;;;3.90;;
27566;SDS011;15006;48.584;9.186;2022-11-03T01:17:08;5.00;;;4.20;;
27566;SDS011;15006;48.584;9.186;2022-11-03T01:19:37;3.97;;;3.67;;
27566;SDS011;15006;48.584;9.186;2022-11-03T01:22:03;4.60;;;3.75;;
27566;SDS011;15006;48.584;9.186;2022-11-03T01:24:30;3.83;;;3.53;;
27566;SDS011;15006;48.584;9.186;2022-11-03T01:26:56;4.13;;;3.80;;
27566;SDS011;15006;48.584;9.186;2022-11-03T01:29:22;4.80;;;3.92;;
27566;SDS011;15006;48.584;9.186;2022-11-03T01:31:48;5.10;;;3.85;;
27566;SDS011;15006;48.584;9.186;2022-11-03T01:34:15;4.32;;;3.92;;
27566;SDS011;15006;48.584;9.186;2022-11-03T01:36:43;3.90;;;3.60;;
27566;SDS011;15006;48.584;9.186;2022-11-03T01:39:10;5.40;;;3.88;;
27566;SDS011;15006;48.584;9.186;2022-11-03T01:41:37;4.20;;;3.80;;
27566;SDS011;15006;48.584;9.186;2022-11-03T01:46:45;5.75;;;5.10;;
27566;SDS011;15006;48.584;9.186;2022-11-03T01:57:12;9.40;;;5.13;;
27566;SDS011;15006;48.584;9.186;2022-11-03T01:59:43;5.75;;;4.95;;
27566;SDS011;15006;48.584;9.186;2022-11-03T02:02:13;6.07;;;5.20;;
27566;SDS011;15006;48.584;9.186;2022-11-03T02:04:41;4.47;;;4.18;;
27566;SDS011;15006;48.584;9.186;2022-11-03T02:07:25;4.90;;;4.50;;
27566;SDS011;15006;48.584;9.186;2022-11-03T02:09:58;6.60;;;3.85;;
27566;SDS011;15006;48.584;9.186;2022-11-03T02:12:26;5.45;;;4.32;;
27566;SDS011;15006;48.584;9.186;2022-11-03T02:15:13;5.30;;;4.57;;
27566;SDS011;15006;48.584;9.186;2022-11-03T02:17:41;6.15;;;5.20;;
27566;SDS011;15006;48.584;9.186;2022-11-03T02:20:11;9.30;;;5.25;;
27566;SDS011;15006;48.584;9.186;2022-11-03T02:28:19;5.13;;;4.10;;
27566;SDS011;15006;48.584;9.186;2022-11-03T02:30:58;3.83;;;3.53;;
27566;SDS011;15006;48.584;9.186;2022-11-03T02:36:25;4.30;;;4.00;;
27566;SDS011;15006;48.584;9.186;2022-11-03T02:41:45;3.72;;;3.38;;
27566;SDS011;15006;48.584;9.186;2022-11-03T02:44:16;4.00;;;3.60;;
27566;SDS011;15006;48.584;9.186;2022-11-03T02:46:46;3.83;;;3.53;;
27566;SDS011;15006;48.584;9.186;2022-11-03T02:49:19;4.20;;;3.83;;
27566;SDS011;15006;48.584;9.186;2022-11-03T02:51:46;7.15;;;4.32;;
27566;SDS011;15006;48.584;9.186;2022-11-03T02:54:33;4.00;;;3.67;;
27566;SDS011;15006;48.584;9.186;2022-11-03T02:57:08;5.93;;;3.33;;
27566;SDS011;15006;48.584;9.186;2022-11-03T02:59:55;3.63;;;3.30;;
27566;SDS011;15006;48.584;9.186;2022-11-03T03:05:25;3.67;;;3.30;;
27566;SDS011;15006;48.584;9.186;2022-11-03T03:07:56;4.32;;;3.63;;
27566;SDS011;15006;48.584;9.186;2022-11-03T03:10:28;4.35;;;3.67;;
27566;SDS011;15006;48.584;9.186;2022-11-03T03:13:00;6.93;;;3.72;;
27566;SDS011;15006;48.584;9.186;2022-11-03T03:15:44;3.50;;;3.20;;
27566;SDS011;15006;48.584;9.186;2022-11-03T03:18:28;3.88;;;3.58;;
27566;SDS011;15006;48.584;9.186;2022-11-03T03:21:11;5.70;;;3.90;;
27566;SDS011;15006;48.584;9.186;2022-11-03T03:23:44;4.03;;;3.83;;
27566;SDS011;15006;48.584;9.186;2022-11-03T03:26:18;6.60;;;4.00;;
27566;SDS011;15006;48.584;9.186;2022-11-03T03:28:51;6.25;;;4.93;;
27566;SDS011;15006;48.584;9.186;2022-11-03T03:31:25;4.68;;;4.28;;
27566;SDS011;15006;48.584;9.186;2022-11-03T03:33:55;5.03;;;4.53;;
27566;SDS011;15006;48.584;9.186;2022-11-03T03:36:23;9.38;;;4.88;;
27566;SDS011;15006;48.584;9.186;2022-11-03T03:38:55;5.47;;;4.57;;
27566;SDS011;15006;48.584;9.186;2022-11-03T03:41:27;8.15;;;4.88;;
27566;SDS011;15006;48.584;9.186;2022-11-03T03:43:58;4.97;;;3.70;;
27566;SDS011;15006;48.584;9.186;2022-11-03T03:46:31;6.13;;;4.57;;
27566;SDS011;15006;48.584;9.186;2022-11-03T03:49:03;6.38;;;4.32;;
27566;SDS011;15006;48.584;9.186;2022-11-03T03:51:29;7.05;;;4.70;;
27566;SDS011;15006;48.584;9.186;2022-11-03T03:53:57;6.10;;;4.43;;
27566;SDS011;15006;48.584;9.186;2022-11-03T03:56:31;4.97;;;4.40;;
27566;SDS011;15006;48.584;9.186;2022-11-03T03:59:21;5.18;;;4.68;;
27566;SDS011;15006;48.584;9.186;2022-11-03T04:01:47;4.47;;;4.07;;
27566;SDS011;15006;48.584;9.186;2022-11-03T04:04:13;4.40;;;4.10;;
27566;SDS011;15006;48.584;9.186;2022-11-03T04:06:38;4.88;;;4.20;;
27566;SDS011;15006;48.584;9.186;2022-11-03T04:09:04;4.40;;;4.03;;
27566;SDS011;15006;48.584;9.186;2022-11-03T04:11:31;3.50;;;3.20;;
27566;SDS011;15006;48.584;9.186;2022-11-03T04:14:35;3.92;;;3.63;;
27566;SDS011;15006;48.584;9.186;2022-11-03T04:17:20;4.57;;;4.28;;
27566;SDS011;15006;48.584;9.186;2022-11-03T04:20:08;7.60;;;4.60;;
27566;SDS011;15006;48.584;9.186;2022-11-03T04:22:56;5.65;;;4.07;;
27566;SDS011;15006;48.584;9.186;2022-11-03T04:25:22;5.05;;;4.00;;
27566;SDS011;15006;48.584;9.186;2022-11-03T04:27:48;5.25;;;4.55;;
27566;SDS011;15006;48.584;9.186;2022-11-03T04:30:15;5.03;;;4.40;;
27566;SDS011;15006;48.584;9.186;2022-11-03T04:32:46;5.25;;;4.68;;
27566;SDS011;15006;48.584;9.186;2022-11-03T04:35:31;5.88;;;4.53;;
27566;SDS011;15006;48.584;9.186;2022-11-03T04:37:59;6.07;;;4.63;;
27566;SDS011;15006;48.584;9.186;2022-11-03T04:40:29;5.15;;;4.22;;
27566;SDS011;15006;48.584;9.186;2022-11-03T04:42:55;6.50;;;4.32;;
27566;SDS011;15006;48.584;9.186;2022-11-03T04:45:23;6.13;;;3.92;;
27566;SDS011;15006;48.584;9.186;2022-11-03T04:47:54;5.32;;;3.97;;
27566;SDS011;15006;48.584;9.186;2022-11-03T04:50:23;6.35;;;4.72;;
27566;SDS011;15006;48.584;9.186;2022-11-03T04:52:56;6.35;;;4.45;;
27566;SDS011;15006;48.584;9.186;2022-11-03T04:55:23;4.78;;;3.80;;
27566;SDS011;15006;48.584;9.186;2022-11-03T04:57:53;6.03;;;4.00;;
27566;SDS011;15006;48.584;9.186;2022-11-03T05:00:22;4.43;;;4.07;;
27566;SDS011;15006;48.584;9.186;2022-11-03T05:02:49;6.88;;;4.30;;
27566;SDS011;15006;48.584;9.186;2022-11-03T05:05:18;7.32;;;4.47;;
27566;SDS011;15006;48.584;9.186;2022-11-03T05:07:50;5.80;;;4.85;;
27566;SDS011;15006;48.584;9.186;2022-11-03T05:10:19;5.38;;;4.70;;
27566;SDS011;15006;48.584;9.186;2022-11-03T05:12:49;4.88;;;4.38;;
27566;SDS011;15006;48.584;9.186;2022-11-03T05:15:28;5.55;;;4.90;;
27566;SDS011;15006;48.584;9.186;2022-11-03T05:18:12;4.85;;;4.45;;
27566;SDS011;15006;48.584;9.186;2022-11-03T05:21:00;12.98;;;4.95;;
27566;SDS011;15006;48.584;9.186;2022-11-03T05:23:30;7.82;;;4.82;;
27566;SDS011;15006;48.584;9.186;2022-11-03T05:26:03;4.95;;;4.47;;
27566;SDS011;15006;48.584;9.186;2022-11-03T05:28:32;7.15;;;4.72;;
27566;SDS011;15006;48.584;9.186;2022-11-03T05:31:23;10.98;;;4.97;;
27566;SDS011;15006;48.584;9.186;2022-11-03T05:33:55;7.57;;;5.43;;
27566;SDS011;15006;48.584;9.186;2022-11-03T05:36:25;9.10;;;5.65;;
27566;SDS011;15006;48.584;9.186;2022-11-03T05:39:14;5.60;;;4.65;;
27566;SDS011;15006;48.584;9.186;2022-11-03T05:41:49;6.10;;;4.50;;
27566;SDS011;15006;48.584;9.186;2022-11-03T05:46:58;4.07;;;3.78;;
27566;SDS011;15006;48.584;9.186;2022-11-03T05:49:26;4.32;;;3.95;;
27566;SDS011;15006;48.584;9.186;2022-11-03T05:51:54;6.63;;;3.90;;
27566;SDS011;15006;48.584;9.186;2022-11-03T05:54:25;4.10;;;3.80;;
27566;SDS011;15006;48.584;9.186;2022-11-03T05:56:54;5.05;;;4.18;;
27566;SDS011;15006;48.584;9.186;2022-11-03T05:59:25;4.40;;;4.10;;
27566;SDS011;15006;48.584;9.186;2022-11-03T06:01:54;7.68;;;4.95;;
27566;SDS011;15006;48.584;9.186;2022-11-03T06:06:58;7.53;;;4.55;;
27566;SDS011;15006;48.584;9.186;2022-11-03T06:09:28;5.63;;;4.90;;
27566;SDS011;15006;48.584;9.186;2022-11-03T06:11:58;10.02;;;5.72;;
27566;SDS011;15006;48.584;9.186;2022-11-03T06:14:27;5.40;;;4.90;;
27566;SDS011;15006;48.584;9.186;2022-11-03T06:17:01;9.18;;;5.10;;
27566;SDS011;15006;48.584;9.186;2022-11-03T06:19:31;5.43;;;4.93;;
27566;SDS011;15006;48.584;9.186;2022-11-03T06:22:23;8.63;;;6.00;;
27566;SDS011;15006;48.584;9.186;2022-11-03T06:24:58;6.72;;;4.57;;
27566;SDS011;15006;48.584;9.186;2022-11-03T06:27:41;5.30;;;4.90;;
27566;SDS011;15006;48.584;9.186;2022-11-03T06:30:18;8.93;;;5.00;;
27566;SDS011;15006;48.584;9.186;2022-11-03T06:32:59;4.05;;;3.75;;
27566;SDS011;15006;48.584;9.186;2022-11-03T06:35:49;6.28;;;4.45;;
27566;SDS011;15006;48.584;9.186;2022-11-03T06:38:22;5.30;;;4.80;;
27566;SDS011;15006;48.584;9.186;2022-11-03T06:40:51;4.95;;;4.55;;
27566;SDS011;15006;48.584;9.186;2022-11-03T06:43:19;7.30;;;5.38;;
27566;SDS011;15006;48.584;9.186;2022-11-03T06:45:49;8.07;;;6.75;;
27566;SDS011;15006;48.584;9.186;2022-11-03T06:48:22;7.43;;;6.75;;
27566;SDS011;15006;48.584;9.186;2022-11-03T06:50:55;6.68;;;6.15;;
27566;SDS011;15006;48.584;9.186;2022-11-03T06:53:23;7.63;;;6.20;;
27566;SDS011;15006;48.584;9.186;2022-11-03T06:55:53;8.25;;;6.97;;
27566;SDS011;15006;48.584;9.186;2022-11-03T06:58:24;9.10;;;6.10;;
27566;SDS011;15006;48.584;9.186;2022-11-03T07:01:14;7.15;;;6.47;;
27566;SDS011;15006;48.584;9.186;2022-11-03T07:03:42;8.45;;;6.40;;
27566;SDS011;15006;48.584;9.186;2022-11-03T07:08:36;10.00;;;7.45;;
27566;SDS011;15006;48.584;9.186;2022-11-03T07:11:17;7.15;;;6.50;;
27566;SDS011;15006;48.584;9.186;2022-11-03T07:13:50;7.65;;;6.85;;
27566;SDS011;15006;48.584;9.186;2022-11-03T07:16:26;8.90;;;6.97;;
27566;SDS011;15006;48.584;9.186;2022-11-03T07:19:00;10.55;;;7.07;;
27566;SDS011;15006;48.584;9.186;2022-11-03T07:21:36;11.18;;;6.93;;
27566;SDS011;15006;48.584;9.186;2022-11-03T07:24:23;10.43;;;7.03;;
27566;SDS011;15006;48.584;9.186;2022-11-03T07:27:20;8.50;;;6.60;;
27566;SDS011;15006;48.584;9.186;2022-11-03T07:29:49;7.40;;;6.70;;
27566;SDS011;15006;48.584;9.186;2022-11-03T07:32:18;6.18;;;5.63;;
27566;SDS011;15006;48.584;9.186;2022-11-03T07:34:47;6.35;;;5.78;;
27566;SDS011;15006;48.584;9.186;2022-11-03T07:37:20;9.80;;;6.10;;
27566;SDS011;15006;48.584;9.186;2022-11-03T07:39:48;6.38;;;5.88;;
27566;SDS011;15006;48.584;9.186;2022-11-03T07:42:19;8.05;;;5.80;;
27566;SDS011;15006;48.584;9.186;2022-11-03T07:44:47;7.22;;;6.50;;
27566;SDS011;15006;48.584;9.186;2022-11-03T07:47:15;12.23;;;8.60;;
27566;SDS011;15006;48.584;9.186;2022-11-03T07:49:45;9.93;;;8.70;;
27566;SDS011;15006;48.584;9.186;2022-11-03T07:52:13;12.27;;;8.45;;
27566;SDS011;15006;48.584;9.186;2022-11-03T07:54:44;7.20;;;6.50;;
27566;SDS011;15006;48.584;9.186;2022-11-03T07:57:14;8.25;;;7.03;;
27566;SDS011;15006;48.584;9.186;2022-11-03T07:59:51;8.50;;;7.20;;
27566;SDS011;15006;48.584;9.186;2022-11-03T08:05:12;9.32;;;7.30;;
27566;SDS011;15006;48.584;9.186;2022-11-03T08:07:38;8.02;;;7.20;;
27566;SDS011;15006;48.584;9.186;2022-11-03T08:10:04;7.55;;;6.88;;
27566;SDS011;15006;48.584;9.186;2022-11-03T08:12:32;6.85;;;6.35;;
27566;SDS011;15006;48.584;9.186;2022-11-03T08:14:58;6.50;;;6.00;;
27566;SDS011;15006;48.584;9.186;2022-11-03T08:17:24;10.10;;;6.45;;
27566;SDS011;15006;48.584;9.186;2022-11-03T08:19:51;7.15;;;6.38;;
27566;SDS011;15006;48.584;9.186;2022-11-03T08:22:17;7.15;;;6.53;;
27566;SDS011;15006;48.584;9.186;2022-11-03T08:24:43;7.47;;;6.78;;
27566;SDS011;15006;48.584;9.186;2022-11-03T08:27:09;7.78;;;6.30;;
27566;SDS011;15006;48.584;9.186;2022-11-03T08:29:35;7.05;;;6.03;;
27566;SDS011;15006;48.584;9.186;2022-11-03T08:32:01;6.97;;;6.25;;
27566;SDS011;15006;48.584;9.186;2022-11-03T08:34:28;6.95;;;6.25;;
27566;SDS011;15006;48.584;9.186;2022-11-03T08:36:54;7.45;;;6.70;;
27566;SDS011;15006;48.584;9.186;2022-11-03T08:39:20;6.15;;;5.40;;
27566;SDS011;15006;48.584;9.186;2022-11-03T08:41:46;6.30;;;5.53;;
27566;SDS011;15006;48.584;9.186;2022-11-03T08:44:12;9.68;;;5.38;;
27566;SDS011;15006;48.584;9.186;2022-11-03T08:46:38;5.45;;;4.97;;
27566;SDS011;15006;48.584;9.186;2022-11-03T08:49:04;6.07;;;4.43;;
27566;SDS011;15006;48.584;9.186;2022-11-03T08:51:29;5.10;;;4.40;;
27566;SDS011;15006;48.584;9.186;2022-11-03T08:53:55;4.88;;;4.47;;
27566;SDS011;15006;48.584;9.186;2022-11-03T08:56:21;8.20;;;4.53;;
27566;SDS011;15006;48.584;9.186;2022-11-03T08:58:47;6.50;;;4.57;;
27566;SDS011;15006;48.584;9.186;2022-11-03T09:01:14;4.97;;;4.47;;
27566;SDS011;15006;48.584;9.186;2022-11-03T09:03:41;6.80;;;5.13;;
27566;SDS011;15006;48.584;9.186;2022-11-03T09:06:07;8.38;;;5.57;;
27566;SDS011;15006;48.584;9.186;2022-11-03T09:08:33;9.13;;;7.07;;
27566;SDS011;15006;48.584;9.186;2022-11-03T09:10:59;10.23;;;7.90;;
27566;SDS011;15006;48.584;9.186;2022-11-03T09:13:26;10.48;;;7.78;;
27566;SDS011;15006;48.584;9.186;2022-11-03T09:15:52;7.60;;;6.43;;
27566;SDS011;15006;48.584;9.186;2022-11-03T09:18:18;9.60;;;5.25;;
27566;SDS011;15006;48.584;9.186;2022-11-03T09:20:44;5.78;;;4.95;;
27566;SDS011;15006;48.584;9.186;2022-11-03T09:23:10;5.25;;;4.75;;
27566;SDS011;15006;48.584;9.186;2022-11-03T09:25:36;5.32;;;4.82;;
27566;SDS011;15006;48.584;9.186;2022-11-03T09:28:02;7.75;;;4.80;;
27566;SDS011;15006;48.584;9.186;2022-11-03T09:30:29;7.30;;;4.70;;
27566;SDS011;15006;48.584;9.186;2022-11-03T09:32:55;4.78;;;3.35;;
27566;SDS011;15006;48.584;9.186;2022-11-03T09:35:21;5.65;;;4.00;;
27566;SDS011;15006;48.584;9.186;2022-11-03T09:37:47;5.13;;;3.90;;
27566;SDS011;15006;48.584;9.186;2022-11-03T09:40:13;5.30;;;4.03;;
27566;SDS011;15006;48.584;9.186;2022-11-03T09:42:41;3.40;;;3.10;;
27566;SDS011;15006;48.584;9.186;2022-11-03T09:45:08;5.18;;;3.30;;
27566;SDS011;15006;48.584;9.186;2022-11-03T09:47:35;3.42;;;2.78;;
27566;SDS011;15006;48.584;9.186;2022-11-03T09:50:06;5.88;;;2.33;;
27566;SDS011;15006;48.584;9.186;2022-11-03T09:52:40;5.28;;;2.40;;
27566;SDS011;15006;48.584;9.186;2022-11-03T09:55:13;5.72;;;2.60;;
27566;SDS011;15006;48.584;9.186;2022-11-03T09:57:42;4.55;;;2.42;;
27566;SDS011;15006;48.584;9.186;2022-11-03T10:00:20;5.15;;;2.55;;
27566;SDS011;15006;48.584;9.186;2022-11-03T10:02:48;5.75;;;2.30;;
27566;SDS011;15006;48.584;9.186;2022-11-03T10:05:18;8.35;;;2.13;;
27566;SDS011;15006;48.584;9.186;2022-11-03T10:07:48;2.67;;;2.00;;
27566;SDS011;15006;48.584;9.186;2022-11-03T10:10:17;8.05;;;2.13;;
27566;SDS011;15006;48.584;9.186;2022-11-03T10:12:47;2.75;;;2.08;;
27566;SDS011;15006;48.584;9.186;2022-11-03T10:15:15;4.10;;;2.30;;
27566;SDS011;15006;48.584;9.186;2022-11-03T10:17:42;4.15;;;2.33;;
27566;SDS011;15006;48.584;9.186;2022-11-03T10:20:14;2.97;;;2.10;;
27566;SDS011;15006;48.584;9.186;2022-11-03T10:22:43;6.22;;;2.35;;
27566;SDS011;15006;48.584;9.186;2022-11-03T10:28:19;4.93;;;2.17;;
27566;SDS011;15006;48.584;9.186;2022-11-03T10:31:00;3.47;;;2.20;;
27566;SDS011;15006;48.584;9.186;2022-11-03T10:38:48;4.70;;;4.40;;
27566;SDS011;15006;48.584;9.186;2022-11-03T10:44:15;3.83;;;3.53;;
27566;SDS011;15006;48.584;9.186;2022-11-03T10:46:36;5.28;;;4.78;;
27566;SDS011;15006;48.584;9.186;2022-11-03T10:51:43;5.88;;;5.05;;
27566;SDS011;15006;48.584;9.186;2022-11-03T10:54:16;5.43;;;4.38;;
27566;SDS011;15006;48.584;9.186;2022-11-03T10:56:45;5.47;;;4.57;;
27566;SDS011;15006;48.584;9.186;2022-11-03T10:59:23;4.68;;;4.28;;
27566;SDS011;15006;48.584;9.186;2022-11-03T11:01:56;3.17;;;2.20;;
27566;SDS011;15006;48.584;9.186;2022-11-03T11:04:23;2.08;;;1.98;;
27566;SDS011;15006;48.584;9.186;2022-11-03T11:06:49;3.00;;;2.03;;
27566;SDS011;15006;48.584;9.186;2022-11-03T11:09:23;4.20;;;2.22;;
27566;SDS011;15006;48.584;9.186;2022-11-03T11:12:36;2.60;;;2.38;;
27566;SDS011;15006;48.584;9.186;2022-11-03T11:14:51;4.28;;;2.47;;
27566;SDS011;15006;48.584;9.186;2022-11-03T11:17:42;2.50;;;2.33;;
27566;SDS011;15006;48.584;9.186;2022-11-03T11:22:48;5.40;;;3.35;;
27566;SDS011;15006;48.584;9.186;2022-11-03T11:25:18;4.53;;;3.42;;
27566;SDS011;15006;48.584;9.186;2022-11-03T11:27:45;5.60;;;3.55;;
27566;SDS011;15006;48.584;9.186;2022-11-03T11:35:10;2.97;;;2.67;;
27566;SDS011;15006;48.584;9.186;2022-11-03T11:37:46;3.42;;;2.92;;
27566;SDS011;15006;48.584;9.186;2022-11-03T11:40:13;3.30;;;2.72;;
27566;SDS011;15006;48.584;9.186;2022-11-03T11:51:35;4.45;;;3.10;;
27566;SDS011;15006;48.584;9.186;2022-11-03T11:54:05;4.80;;;3.65;;
27566;SDS011;15006;48.584;9.186;2022-11-03T11:56:41;3.60;;;3.30;;
27566;SDS011;15006;48.584;9.186;2022-11-03T11:59:14;6.43;;;3.47;;
27566;SDS011;15006;48.584;9.186;2022-11-03T12:01:50;4.97;;;3.08;;
27566;SDS011;15006;48.584;9.186;2022-11-03T12:04:21;3.95;;;3.63;;
27566;SDS011;15006;48.584;9.186;2022-11-03T12:06:55;4.63;;;4.30;;
27566;SDS011;15006;48.584;9.186;2022-11-03T12:09:22;3.90;;;3.60;;
27566;SDS011;15006;48.584;9.186;2022-11-03T12:11:52;4.57;;;3.67;;
27566;SDS011;15006;48.584;9.186;2022-11-03T12:16:54;4.50;;;4.20;;
27566;SDS011;15006;48.584;9.186;2022-11-03T12:19:34;5.05;;;4.07;;
27566;SDS011;15006;48.584;9.186;2022-11-03T12:29:51;4.45;;;4.07;;
27566;SDS011;15006;48.584;9.186;2022-11-03T12:32:19;6.10;;;4.55;;
27566;SDS011;15006;48.584;9.186;2022-11-03T12:34:45;5.45;;;4.60;;
27566;SDS011;15006;48.584;9.186;2022-11-03T12:37:11;4.40;;;3.95;;
27566;SDS011;15006;48.584;9.186;2022-11-03T12:39:37;7.63;;;4.28;;
27566;SDS011;15006;48.584;9.186;2022-11-03T12:42:04;8.68;;;4.50;;
27566;SDS011;15006;48.584;9.186;2022-11-03T12:44:31;7.07;;;3.97;;
27566;SDS011;15006;48.584;9.186;2022-11-03T12:46:57;6.88;;;3.88;;
27566;SDS011;15006;48.584;9.186;2022-11-03T12:49:24;8.63;;;3.72;;
27566;SDS011;15006;48.584;9.186;2022-11-03T12:51:50;4.57;;;3.70;;
27566;SDS011;15006;48.584;9.186;2022-11-03T12:54:16;6.28;;;3.40;;
27566;SDS011;15006;48.584;9.186;2022-11-03T12:56:42;3.97;;;3.47;;
27566;SDS011;15006;48.584;9.186;2022-11-03T12:59:08;3.80;;;3.50;;
27566;SDS011;15006;48.584;9.186;2022-11-03T13:01:34;4.40;;;3.92;;
27566;SDS011;15006;48.584;9.186;2022-11-03T13:04:00;4.13;;;3.78;;
27566;SDS011;15006;48.584;9.186;2022-11-03T13:06:29;4.70;;;4.30;;
27566;SDS011;15006;48.584;9.186;2022-11-03T13:08:56;4.75;;;4.35;;
27566;SDS011;15006;48.584;9.186;2022-11-03T13:11:22;5.10;;;4.05;;
27566;SDS011;15006;48.584;9.186;2022-11-03T13:14:06;5.07;;;4.10;;
27566;SDS011;15006;48.584;9.186;2022-11-03T13:16:32;6.15;;;4.18;;
27566;SDS011;15006;48.584;9.186;2022-11-03T13:18:58;4.45;;;4.05;;
27566;SDS011;15006;48.584;9.186;2022-11-03T13:21:24;3.80;;;3.60;;
27566;SDS011;15006;48.584;9.186;2022-11-03T13:23:50;4.10;;;3.80;;
27566;SDS011;15006;48.584;9.186;2022-11-03T13:26:17;6.40;;;3.92;;
27566;SDS011;15006;48.584;9.186;2022-11-03T13:28:43;4.68;;;3.60;;
27566;SDS011;15006;48.584;9.186;2022-11-03T13:31:10;4.03;;;3.35;;
27566;SDS011;15006;48.584;9.186;2022-11-03T13:33:37;3.95;;;3.65;;
27566;SDS011;15006;48.584;9.186;2022-11-03T13:36:03;3.50;;;3.17;;
27566;SDS011;15006;48.584;9.186;2022-11-03T13:38:30;4.45;;;3.47;;
27566;SDS011;15006;48.584;9.186;2022-11-03T13:40:56;4.20;;;3.80;;
27566;SDS011;15006;48.584;9.186;2022-11-03T13:43:22;4.30;;;3.85;;
27566;SDS011;15006;48.584;9.186;2022-11-03T13:45:48;4.25;;;3.95;;
27566;SDS011;15006;48.584;9.186;2022-11-03T13:48:14;6.65;;;3.95;;
27566;SDS011;15006;48.584;9.186;2022-11-03T13:50:43;3.42;;;3.10;;
27566;SDS011;15006;48.584;9.186;2022-11-03T13:53:16;3.50;;;3.30;;
27566;SDS011;15006;48.584;9.186;2022-11-03T13:55:42;5.82;;;3.53;;
27566;SDS011;15006;48.584;9.186;2022-11-03T13:58:09;5.88;;;4.95;;
27566;SDS011;15006;48.584;9.186;2022-11-03T14:00:35;5.75;;;5.20;;
27566;SDS011;15006;48.584;9.186;2022-11-03T14:03:01;5.15;;;4.85;;
27566;SDS011;15006;48.584;9.186;2022-11-03T14:05:27;6.95;;;5.13;;
27566;SDS011;15006;48.584;9.186;2022-11-03T14:07:53;5.18;;;4.72;;
27566;SDS011;15006;48.584;9.186;2022-11-03T14:10:19;7.80;;;5.43;;
27566;SDS011;15006;48.584;9.186;2022-11-03T14:12:45;9.73;;;5.60;;
27566;SDS011;15006;48.584;9.186;2022-11-03T14:15:11;6.85;;;5.68;;
27566;SDS011;15006;48.584;9.186;2022-11-03T14:17:37;4.70;;;4.40;;
27566;SDS011;15006;48.584;9.186;2022-11-03T14:20:04;4.82;;;4.28;;
27566;SDS011;15006;48.584;9.186;2022-11-03T14:22:36;5.40;;;4.22;;
27566;SDS011;15006;48.584;9.186;2022-11-03T14:25:03;8.77;;;5.07;;
27566;SDS011;15006;48.584;9.186;2022-11-03T14:27:30;5.15;;;4.72;;
27566;SDS011;15006;48.584;9.186;2022-11-03T14:29:56;4.88;;;4.40;;
27566;SDS011;15006;48.584;9.186;2022-11-03T14:32:22;5.15;;;4.40;;
27566;SDS011;15006;48.584;9.186;2022-11-03T14:34:48;5.50;;;5.00;;
27566;SDS011;15006;48.584;9.186;2022-11-03T14:37:14;6.72;;;4.80;;
27566;SDS011;15006;48.584;9.186;2022-11-03T14:39:40;7.75;;;4.57;;
27566;SDS011;15006;48.584;9.186;2022-11-03T14:42:10;7.28;;;4.50;;
27566;SDS011;15006;48.584;9.186;2022-11-03T14:44:41;5.15;;;4.63;;
27566;SDS011;15006;48.584;9.186;2022-11-03T14:47:10;8.00;;;4.03;;
27566;SDS011;15006;48.584;9.186;2022-11-03T14:49:38;5.32;;;4.60;;
27566;SDS011;15006;48.584;9.186;2022-11-03T14:52:05;5.70;;;4.88;;
27566;SDS011;15006;48.584;9.186;2022-11-03T14:54:32;5.25;;;4.75;;
27566;SDS011;15006;48.584;9.186;2022-11-03T14:56:59;7.88;;;5.20;;
27566;SDS011;15006;48.584;9.186;2022-11-03T14:59:25;8.27;;;4.88;;
27566;SDS011;15006;48.584;9.186;2022-11-03T15:01:52;4.57;;;4.18;;
27566;SDS011;15006;48.584;9.186;2022-11-03T15:04:19;5.60;;;4.40;;
27566;SDS011;15006;48.584;9.186;2022-11-03T15:06:46;4.53;;;3.88;;
27566;SDS011;15006;48.584;9.186;2022-11-03T15:09:13;4.50;;;3.97;;
27566;SDS011;15006;48.584;9.186;2022-11-03T15:11:40;8.68;;;4.13;;
27566;SDS011;15006;48.584;9.186;2022-11-03T15:14:10;5.43;;;4.40;;
27566;SDS011;15006;48.584;9.186;2022-11-03T15:16:36;3.75;;;3.47;;
27566;SDS011;15006;48.584;9.186;2022-11-03T15:19:04;3.85;;;3.42;;
27566;SDS011;15006;48.584;9.186;2022-11-03T15:21:31;4.57;;;3.65;;
27566;SDS011;15006;48.584;9.186;2022-11-03T15:23:57;3.47;;;3.28;;
27566;SDS011;15006;48.584;9.186;2022-11-03T15:26:23;3.25;;;2.75;;
27566;SDS011;15006;48.584;9.186;2022-11-03T15:28:49;3.50;;;3.17;;
27566;SDS011;15006;48.584;9.186;2022-11-03T15:31:15;3.53;;;3.28;;
27566;SDS011;15006;48.584;9.186;2022-11-03T15:33:41;3.30;;;3.00;;
27566;SDS011;15006;48.584;9.186;2022-11-03T15:36:07;3.92;;;3.33;;
27566;SDS011;15006;48.584;9.186;2022-11-03T15:38:33;3.30;;;3.00;;
27566;SDS011;15006;48.584;9.186;2022-11-03T15:41:00;2.83;;;2.65;;
27566;SDS011;15006;48.584;9.186;2022-11-03T15:43:47;3.25;;;2.83;;
27566;SDS011;15006;48.584;9.186;2022-11-03T15:46:15;4.50;;;3.35;;
27566;SDS011;15006;48.584;9.186;2022-11-03T15:48:42;3.70;;;3.45;;
27566;SDS011;15006;48.584;9.186;2022-11-03T15:51:09;4.03;;;3.72;;
27566;SDS011;15006;48.584;9.186;2022-11-03T15:53:36;4.55;;;4.15;;
27566;SDS011;15006;48.584;9.186;2022-11-03T15:56:02;4.35;;;3.95;;
27566;SDS011;15006;48.584;9.186;2022-11-03T15:58:29;4.70;;;4.20;;
27566;SDS011;15006;48.584;9.186;2022-11-03T16:00:59;5.18;;;3.83;;
27566;SDS011;15006;48.584;9.186;2022-11-03T16:03:27;5.32;;;3.95;;
27566;SDS011;15006;48.584;9.186;2022-11-03T16:05:53;4.32;;;3.95;;
27566;SDS011;15006;48.584;9.186;2022-11-03T16:08:19;4.57;;;4.18;;
27566;SDS011;15006;48.584;9.186;2022-11-03T16:10:46;4.85;;;4.43;;
27566;SDS011;15006;48.584;9.186;2022-11-03T16:13:12;4.97;;;4.57;;
27566;SDS011;15006;48.584;9.186;2022-11-03T16:15:38;4.93;;;4.50;;
27566;SDS011;15006;48.584;9.186;2022-11-03T16:18:03;4.88;;;4.57;;
27566;SDS011;15006;48.584;9.186;2022-11-03T16:20:30;5.80;;;4.55;;
27566;SDS011;15006;48.584;9.186;2022-11-03T16:22:56;5.20;;;4.78;;
27566;SDS011;15006;48.584;9.186;2022-11-03T16:25:22;6.10;;;4.00;;